メインページ
METAR-TAF:

METAR-TAF

空港 :

リスボン, ポルトガル

ウンベルト・デルガード空港

緯度: 38-46N, 経度: 009-08W, 海抜: 114m

現時点の気象観測

当レポートは31分前の05:30(UTC)に作成
無風
気温 19°C
湿度 78%
気圧 1015 hPa
視程10km以上
1,500メートル以下は雲なし、積乱雲なし

METAR: LPPT 200530Z 00000KT CAVOK 19/15 Q1015

時間: 07:01 (06:01 UTC)

予報

当レポートは1時間1分前の05:00(UTC)に作成
予報は20日の 06時(UTC)から 21日の 12時(UTC)まで有効
変向風 3kt
視程10km以上
1,500メートル以下は雲なし、積乱雲なし
20日の 07時(UTC)から 20日の 09時(UTC)まで徐々に
の風 7kt
20日の 12時(UTC)から 20日の 15時(UTC)まで徐々に
南西の風 8kt
20日の 16時(UTC)から 20日の 18時(UTC)まで徐々に
西/北西の風 5kt

TAF: LPPT 200500Z 2006/2112 VRB03KT CAVOK BECMG 2007/2009 08007KT BECMG 2012/2015 23008KT BECMG 2016/2018 29005KT

4,000以上の空港の気象観測と天気予報(METAR報とTAF報)

利用可能な観測所は地図上に黄色い丸と赤い丸で示す。

丸の上にカーソルを重ねると観測所名を参照できる。

次にクリックすると気象観測と天気予報を参照できる。

マップの切り替え:黒色「×」印の緑ボタンをクリックして拡大、「-」印の緑ボタンをクリックして縮小、緑色の三角印をクリックして隣りの地図に切り替え


METAR-TAF: